createdAt,value
2023-04-15T00:01:19.927Z,96141.13
2023-04-15T00:03:50.044Z,96139.03
2023-04-15T00:06:18.332Z,96136.69
2023-04-15T00:08:46.584Z,96140.28
2023-04-15T00:11:15.195Z,96138.38
2023-04-15T00:13:44.182Z,96148.19
2023-04-15T00:16:12.581Z,96128.66
2023-04-15T00:18:41.392Z,96118.41
2023-04-15T00:21:11.132Z,96128.47
2023-04-15T00:23:39.383Z,96140.84
2023-04-15T00:26:07.575Z,96131.19
2023-04-15T00:28:35.846Z,96130.06
2023-04-15T00:31:04.915Z,96138.59
2023-04-15T00:33:33.520Z,96133.25
2023-04-15T00:36:01.841Z,96136.06
2023-04-15T00:38:31.623Z,96135.22
2023-04-15T00:41:00.798Z,96121.72
2023-04-15T00:43:29.769Z,96139.78
2023-04-15T00:46:00.349Z,96138.13
2023-04-15T00:48:29.558Z,96132.53
2023-04-15T00:50:57.994Z,96132.31
2023-04-15T00:53:26.287Z,96127.81
2023-04-15T00:55:56.080Z,96126.53
2023-04-15T00:58:24.751Z,96134.22
2023-04-15T01:00:54.577Z,96124.66
2023-04-15T01:03:23.069Z,96120.53
2023-04-15T01:05:53.060Z,96123.16
2023-04-15T01:08:21.280Z,96126.72
2023-04-15T01:10:49.928Z,96128.97
2023-04-15T01:13:19.632Z,96115.59
2023-04-15T01:15:47.929Z,96126.94
2023-04-15T01:18:16.878Z,96120.75
2023-04-15T01:20:45.164Z,96128.63
2023-04-15T01:23:13.578Z,96129.34
2023-04-15T01:25:45.064Z,96126.53
2023-04-15T01:28:13.986Z,96119.81
2023-04-15T01:30:42.175Z,96123.16
2023-04-15T01:33:10.510Z,96129.25
2023-04-15T01:35:40.046Z,96136.94
2023-04-15T01:38:10.063Z,96134.41
2023-04-15T01:40:39.648Z,96124.72
2023-04-15T01:43:09.625Z,96139.66
2023-04-15T01:45:37.951Z,96129.56
2023-04-15T01:48:06.464Z,96130.50
2023-04-15T01:50:36.959Z,96132.19
2023-04-15T01:53:05.377Z,96126.50
2023-04-15T01:55:33.594Z,96132.81
2023-04-15T01:58:01.944Z,96138.19
2023-04-15T02:00:32.752Z,96127.53
2023-04-15T02:03:01.386Z,96140.38
2023-04-15T02:05:29.898Z,96131.84
2023-04-15T02:07:58.776Z,96142.28
2023-04-15T02:10:27.375Z,96146.09
2023-04-15T02:12:55.617Z,96146.09
2023-04-15T02:15:23.952Z,96144.28
2023-04-15T02:17:55.504Z,96150.78
2023-04-15T02:20:24.416Z,96147.41
2023-04-15T02:22:52.467Z,96147.97
2023-04-15T02:25:21.159Z,96147.13
2023-04-15T02:27:49.392Z,96143.31
2023-04-15T02:30:18.684Z,96144.06
2023-04-15T02:32:48.052Z,96149.09
2023-04-15T02:35:19.293Z,96138.22
2023-04-15T02:37:47.564Z,96152.06
2023-04-15T02:40:15.789Z,96156.59
2023-04-15T02:42:44.512Z,96153.22
2023-04-15T02:45:15.854Z,96149.44
2023-04-15T02:47:46.119Z,96145.88
2023-04-15T02:50:15.296Z,96144.19
2023-04-15T02:52:45.992Z,96134.81
2023-04-15T02:55:14.584Z,96150.19
2023-04-15T02:57:42.806Z,96152.63
2023-04-15T03:00:13.561Z,96145.13
2023-04-15T03:02:44.467Z,96148.50
2023-04-15T03:05:14.201Z,96146.63
2023-04-15T03:07:50.244Z,96153.25
2023-04-15T03:10:18.996Z,96150.72
2023-04-15T03:12:48.185Z,96146.41
2023-04-15T03:15:21.512Z,96152.22
2023-04-15T03:17:52.968Z,96157.25
2023-04-15T03:20:21.301Z,96147.16
2023-04-15T03:22:51.563Z,96147.38
2023-04-15T03:25:21.698Z,96147.38
2023-04-15T03:27:50.025Z,96148.84
2023-04-15T03:30:19.034Z,96158.97
2023-04-15T03:32:47.718Z,96163.19
2023-04-15T03:35:16.624Z,96160.81
2023-04-15T03:37:44.860Z,96156.53
2023-04-15T03:40:14.814Z,96162.81
2023-04-15T03:42:43.101Z,96159.03
2023-04-15T03:45:12.352Z,96159.34
2023-04-15T03:47:40.784Z,96156.72
2023-04-15T03:50:10.059Z,96165.91
2023-04-15T03:52:38.318Z,96162.50
2023-04-15T03:55:06.996Z,96172.13
2023-04-15T03:57:39.957Z,96167.69
2023-04-15T04:00:10.689Z,96158.97
2023-04-15T04:02:41.959Z,96164.78
2023-04-15T04:05:10.818Z,96162.34
2023-04-15T04:07:38.909Z,96169.31
2023-04-15T04:10:08.555Z,96162.34
2023-04-15T04:12:36.753Z,96161.41
2023-04-15T04:15:07.133Z,96167.41
2023-04-15T04:17:35.438Z,96158.97
2023-04-15T04:20:03.758Z,96176.69
2023-04-15T04:22:32.063Z,96172.69
2023-04-15T04:25:02.704Z,96175.84
2023-04-15T04:27:31.131Z,96180.16
2023-04-15T04:29:59.347Z,96181.94
2023-04-15T04:32:29.077Z,96181.84
2023-04-15T04:34:57.425Z,96174.16
2023-04-15T04:37:25.869Z,96186.97
2023-04-15T04:39:53.962Z,96185.94
2023-04-15T04:42:22.334Z,96193.72
2023-04-15T04:44:50.593Z,96189.94
2023-04-15T04:47:18.733Z,96188.81
2023-04-15T04:49:48.428Z,96186.63
2023-04-15T04:52:16.902Z,96187.38
2023-04-15T04:54:45.052Z,96200.50
2023-04-15T04:57:13.806Z,96193.34
2023-04-15T04:59:42.192Z,96198.59
2023-04-15T05:02:10.614Z,96201.78
2023-04-15T05:04:38.854Z,96204.00
2023-04-15T05:07:08.526Z,96207.47
2023-04-15T05:09:37.377Z,96213.78
2023-04-15T05:12:05.973Z,96214.63
2023-04-15T05:14:34.191Z,96217.06
2023-04-15T05:17:02.309Z,96211.88
2023-04-15T05:19:30.562Z,96205.78
2023-04-15T05:21:58.897Z,96212.09
2023-04-15T05:24:28.753Z,96216.91
2023-04-15T05:26:57.493Z,96214.94
2023-04-15T05:29:25.864Z,96207.03
2023-04-15T05:31:54.256Z,96225.78
2023-04-15T05:34:22.574Z,96222.63
2023-04-15T05:36:50.690Z,96237.88
2023-04-15T05:39:19.022Z,96240.31
2023-04-15T05:41:48.668Z,96243.72
2023-04-15T05:44:16.951Z,96245.78
2023-04-15T05:46:45.498Z,96256.31
2023-04-15T05:49:13.866Z,96255.94
2023-04-15T05:51:42.307Z,96250.84
2023-04-15T05:54:11.007Z,96252.78
2023-04-15T05:56:39.317Z,96260.34
2023-04-15T05:59:08.814Z,96268.06
2023-04-15T06:01:37.046Z,96258.25
2023-04-15T06:04:05.458Z,96265.84
2023-04-15T06:06:33.782Z,96255.59
2023-04-15T06:09:02.349Z,96268.81
2023-04-15T06:11:31.506Z,96260.91
2023-04-15T06:13:59.821Z,96275.84
2023-04-15T06:16:29.493Z,96279.94
2023-04-15T06:18:57.779Z,96274.16
2023-04-15T06:21:27.164Z,96279.22
2023-04-15T06:23:56.763Z,96284.28
2023-04-15T06:26:25.218Z,96278.91
2023-04-15T06:28:53.485Z,96293.75
2023-04-15T06:31:21.878Z,96290.06
2023-04-15T06:33:51.496Z,96287.94
2023-04-15T06:36:19.843Z,96295.72
2023-04-15T06:38:48.105Z,96291.94
2023-04-15T06:41:16.470Z,96278.47
2023-04-15T06:43:44.915Z,96295.09
2023-04-15T06:46:13.153Z,96297.44
2023-04-15T06:48:41.332Z,96304.59
2023-04-15T06:51:11.071Z,96319.28
2023-04-15T06:53:41.192Z,96315.78
2023-04-15T06:56:09.992Z,96307.44
2023-04-15T06:58:38.449Z,96321.13
2023-04-15T07:01:07.175Z,96325.47
2023-04-15T07:03:35.966Z,96319.78
2023-04-15T07:06:06.642Z,96322.09
2023-04-15T07:08:36.354Z,96326.94
2023-04-15T07:11:04.888Z,96335.88
2023-04-15T07:13:33.762Z,96336.22
2023-04-15T07:16:02.115Z,96340.44
2023-04-15T07:18:30.277Z,96346.13
2023-04-15T07:20:58.443Z,96344.22
2023-04-15T07:23:26.704Z,96354.78
2023-04-15T07:25:57.115Z,96346.13
2023-04-15T07:28:25.632Z,96353.09
2023-04-15T07:30:54.007Z,96357.31
2023-04-15T07:33:22.283Z,96357.50
2023-04-15T07:35:50.801Z,96364.03
2023-04-15T07:38:19.689Z,96366.25
2023-04-15T07:40:48.472Z,96366.38
2023-04-15T07:43:19.020Z,96363.50
2023-04-15T07:45:47.386Z,96361.91
2023-04-15T07:48:16.157Z,96353.41
2023-04-15T07:50:44.497Z,96357.50
2023-04-15T07:53:12.851Z,96357.63
2023-04-15T07:55:41.216Z,96363.06
2023-04-15T07:58:09.548Z,96364.66
2023-04-15T08:00:39.791Z,96367.31
2023-04-15T08:03:08.265Z,96361.69
2023-04-15T08:05:36.856Z,96356.00
2023-04-15T08:08:05.097Z,96362.75
2023-04-15T08:10:33.474Z,96375.94
2023-04-15T08:13:01.796Z,96377.09
2023-04-15T08:15:30.111Z,96386.53
2023-04-15T08:18:00.893Z,96383.25
2023-04-15T08:20:29.610Z,96391.81
2023-04-15T08:22:58.393Z,96394.06
2023-04-15T08:25:26.663Z,96398.38
2023-04-15T08:27:57.238Z,96396.31
2023-04-15T08:30:25.334Z,96401.72
2023-04-15T08:32:53.739Z,96400.53
2023-04-15T08:35:23.360Z,96405.59
2023-04-15T08:37:51.431Z,96401.91
2023-04-15T08:40:19.895Z,96403.63
2023-04-15T08:42:51.898Z,96413.91
2023-04-15T08:45:21.330Z,96411.75
2023-04-15T08:47:55.898Z,96410.19
2023-04-15T08:50:28.012Z,96414.59
2023-04-15T08:52:57.264Z,96414.88
2023-04-15T08:55:28.125Z,96408.78
2023-04-15T08:57:57.452Z,96411.00
2023-04-15T09:00:26.105Z,96415.66
2023-04-15T09:02:54.636Z,96419.72
2023-04-15T09:05:23.361Z,96420.28
2023-04-15T09:07:53.464Z,96419.25
2023-04-15T09:10:21.741Z,96418.13
2023-04-15T09:12:49.968Z,96422.13
2023-04-15T09:15:19.072Z,96425.78
2023-04-15T09:17:48.786Z,96427.00
2023-04-15T09:20:18.956Z,96418.69
2023-04-15T09:22:49.455Z,96410.47
2023-04-15T09:25:34.800Z,96431.09
2023-04-15T09:28:04.015Z,96435.53
2023-04-15T09:30:32.289Z,96432.34
2023-04-15T09:33:02.380Z,96429.31
2023-04-15T09:35:31.117Z,96430.97
2023-04-15T09:38:04.943Z,96437.56
2023-04-15T09:40:36.474Z,96437.47
2023-04-15T09:43:05.295Z,96438.75
2023-04-15T09:45:34.255Z,96443.34
2023-04-15T09:48:17.544Z,96439.53
2023-04-15T09:50:46.275Z,96445.75
2023-04-15T09:53:19.216Z,96442.53
2023-04-15T09:55:52.099Z,96450.47
2023-04-15T09:58:21.079Z,96447.22
2023-04-15T10:00:51.197Z,96448.56
2023-04-15T10:03:21.935Z,96453.91
2023-04-15T10:05:51.605Z,96454.84
2023-04-15T10:08:21.791Z,96451.72
2023-04-15T10:10:51.963Z,96454.13
2023-04-15T10:13:22.464Z,96456.03
2023-04-15T10:15:53.582Z,96443.94
2023-04-15T10:18:22.972Z,96448.97
2023-04-15T10:20:52.076Z,96442.81
2023-04-15T10:23:21.845Z,96457.91
2023-04-15T10:25:54.066Z,96451.88
2023-04-15T10:28:22.935Z,96450.13
2023-04-15T10:30:52.182Z,96443.72
2023-04-15T10:33:23.474Z,96447.97
2023-04-15T10:35:53.181Z,96451.47
2023-04-15T10:38:35.671Z,96458.84
2023-04-15T10:41:21.180Z,96452.16
2023-04-15T10:43:51.816Z,96451.88
2023-04-15T10:46:22.061Z,96455.47
2023-04-15T10:48:51.686Z,96464.53
2023-04-15T10:51:29.708Z,96462.44
2023-04-15T10:53:59.593Z,96461.44
2023-04-15T10:56:30.175Z,96465.03
2023-04-15T10:59:00.897Z,96464.03
2023-04-15T11:01:54.265Z,96466.03
2023-04-15T11:04:54.319Z,96471.28
2023-04-15T11:07:36.067Z,96471.06
2023-04-15T11:10:05.035Z,96467.47
2023-04-15T11:12:38.816Z,96462.28
2023-04-15T11:15:30.415Z,96470.56
2023-04-15T11:17:59.023Z,96476.09
2023-04-15T11:20:27.611Z,96469.72
2023-04-15T11:23:13.907Z,96467.56
2023-04-15T11:25:43.928Z,96474.22
2023-04-15T11:28:14.438Z,96470.84
2023-04-15T11:30:43.849Z,96471.06
2023-04-15T11:33:13.950Z,96471.91
2023-04-15T11:35:42.710Z,96468.09
2023-04-15T11:38:12.664Z,96463.50
2023-04-15T11:40:43.836Z,96477.44
2023-04-15T11:43:16.848Z,96471.06
2023-04-15T11:45:54.169Z,96476.84
2023-04-15T11:48:24.327Z,96480.16
2023-04-15T11:50:57.035Z,96478.97
2023-04-15T11:53:26.102Z,96463.00
2023-04-15T11:55:55.410Z,96461.81
2023-04-15T11:58:28.025Z,96475.28
2023-04-15T12:01:00.323Z,96476.25
2023-04-15T12:03:30.427Z,96472.13
2023-04-15T12:06:18.008Z,96477.41
2023-04-15T12:09:06.284Z,96474.28
2023-04-15T12:11:54.225Z,96477.47
2023-04-15T12:14:28.409Z,96470.56
2023-04-15T12:17:00.451Z,96478.06
2023-04-15T12:19:30.912Z,96473.06
2023-04-15T12:22:01.023Z,96478.88
2023-04-15T12:24:32.431Z,96484.13
2023-04-15T12:27:04.795Z,96476.75
2023-04-15T12:29:35.527Z,96486.22
2023-04-15T12:32:07.677Z,96487.75
2023-04-15T12:34:38.357Z,96479.69
2023-04-15T12:37:09.649Z,96481.59
2023-04-15T12:39:40.027Z,96470.09
2023-04-15T12:42:09.172Z,96483.53
2023-04-15T12:44:40.090Z,96490.41
2023-04-15T12:47:09.621Z,96486.53
2023-04-15T12:49:38.277Z,96490.72
2023-04-15T12:52:06.921Z,96488.56
2023-04-15T12:54:36.323Z,96492.13
2023-04-15T12:57:07.272Z,96489.59
2023-04-15T12:59:36.199Z,96503.44
2023-04-15T13:02:06.111Z,96509.50
2023-04-15T13:04:34.442Z,96503.34
2023-04-15T13:07:03.206Z,96516.72
2023-04-15T13:09:31.517Z,96509.84
2023-04-15T13:12:00.157Z,96507.81
2023-04-15T13:14:28.705Z,96496.25
2023-04-15T13:16:57.145Z,96508.31
2023-04-15T13:19:27.020Z,96513.63
2023-04-15T13:21:55.695Z,96504.94
2023-04-15T13:24:23.949Z,96519.84
2023-04-15T13:26:52.266Z,96516.22
2023-04-15T13:29:20.652Z,96512.63
2023-04-15T13:31:49.062Z,96513.75
2023-04-15T13:34:17.402Z,96532.31
2023-04-15T13:36:47.070Z,96520.84
2023-04-15T13:39:15.299Z,96532.53
2023-04-15T13:41:43.498Z,96539.53
2023-04-15T13:44:12.432Z,96549.34
2023-04-15T13:46:42.050Z,96548.81
2023-04-15T13:49:10.511Z,96544.13
2023-04-15T13:51:39.049Z,96550.16
2023-04-15T13:54:09.069Z,96543.84
2023-04-15T13:56:37.583Z,96549.31
2023-04-15T13:59:06.765Z,96550.81
2023-04-15T14:01:36.019Z,96560.19
2023-04-15T14:04:04.664Z,96556.66
2023-04-15T14:06:33.639Z,96554.03
2023-04-15T14:09:01.892Z,96566.34
2023-04-15T14:11:31.492Z,96568.03
2023-04-15T14:13:59.644Z,96582.69
2023-04-15T14:16:28.233Z,96579.94
2023-04-15T14:18:58.166Z,96583.50
2023-04-15T14:21:26.521Z,96583.84
2023-04-15T14:23:56.358Z,96582.56
2023-04-15T14:26:25.256Z,96584.50
2023-04-15T14:28:56.212Z,96578.97
2023-04-15T14:31:25.724Z,96588.56
2023-04-15T14:33:54.373Z,96589.03
2023-04-15T14:36:23.006Z,96599.16
2023-04-15T14:38:51.710Z,96592.06
2023-04-15T14:41:20.053Z,96588.50
2023-04-15T14:43:48.652Z,96593.63
2023-04-15T14:46:18.500Z,96592.19
2023-04-15T14:48:46.964Z,96598.00
2023-04-15T14:51:15.880Z,96585.69
2023-04-15T14:53:44.676Z,96591.97
2023-04-15T14:56:13.191Z,96599.66
2023-04-15T14:58:41.511Z,96607.94
2023-04-15T15:01:10.209Z,96610.84
2023-04-15T15:03:40.533Z,96608.56
2023-04-15T15:06:09.726Z,96615.81
2023-04-15T15:08:38.379Z,96620.63
2023-04-15T15:11:06.695Z,96617.88
2023-04-15T15:13:35.235Z,96623.63
2023-04-15T15:16:04.022Z,96625.69
2023-04-15T15:18:32.934Z,96630.53
2023-04-15T15:21:02.877Z,96629.06
2023-04-15T15:23:32.204Z,96629.94
2023-04-15T15:26:01.771Z,96634.16
2023-04-15T15:28:30.166Z,96640.28
2023-04-15T15:30:58.447Z,96641.88
2023-04-15T15:33:28.084Z,96647.75
2023-04-15T15:35:59.358Z,96644.50
2023-04-15T15:38:29.469Z,96654.63
2023-04-15T15:40:58.039Z,96652.94
2023-04-15T15:43:26.316Z,96655.94
2023-04-15T15:45:55.747Z,96659.47
2023-04-15T15:48:24.868Z,96653.53
2023-04-15T15:50:53.856Z,96666.16
2023-04-15T15:53:24.468Z,96670.72
2023-04-15T15:55:54.291Z,96682.00
2023-04-15T15:58:23.404Z,96682.75
2023-04-15T16:00:51.816Z,96674.22
2023-04-15T16:03:20.406Z,96676.03
2023-04-15T16:05:48.981Z,96672.25
2023-04-15T16:08:17.272Z,96685.41
2023-04-15T16:10:45.993Z,96682.38
2023-04-15T16:13:15.702Z,96685.72
2023-04-15T16:15:44.162Z,96698.16
2023-04-15T16:18:12.695Z,96691.38
2023-04-15T16:20:44.348Z,96698.31
2023-04-15T16:23:14.753Z,96693.63
2023-04-15T16:25:44.556Z,96712.91
2023-04-15T16:28:25.755Z,96711.88
2023-04-15T16:30:57.357Z,96717.88
2023-04-15T16:33:27.014Z,96716.44
2023-04-15T16:35:56.043Z,96726.69
2023-04-15T16:38:24.504Z,96725.44
2023-04-15T16:40:53.101Z,96733.41
2023-04-15T16:43:21.922Z,96735.94
2023-04-15T16:45:51.601Z,96747.03
2023-04-15T16:48:26.972Z,96742.59
2023-04-15T16:50:55.650Z,96748.63
2023-04-15T16:53:24.401Z,96749.16
2023-04-15T16:55:52.786Z,96759.06
2023-04-15T16:58:22.840Z,96759.06
2023-04-15T17:00:52.335Z,96770.16
2023-04-15T17:03:23.035Z,96773.03
2023-04-15T17:05:51.454Z,96766.69
2023-04-15T17:08:20.711Z,96771.84
2023-04-15T17:10:51.890Z,96767.00
2023-04-15T17:13:20.678Z,96781.25
2023-04-15T17:15:49.453Z,96765.81
2023-04-15T17:18:18.252Z,96788.97
2023-04-15T17:20:48.075Z,96774.91
2023-04-15T17:23:16.741Z,96785.25
2023-04-15T17:25:45.530Z,96772.13
2023-04-15T17:28:14.236Z,96789.91
2023-04-15T17:30:42.689Z,96785.13
2023-04-15T17:33:56.045Z,96782.69
2023-04-15T17:36:03.455Z,96792.03
2023-04-15T17:38:32.574Z,96802.69
2023-04-15T17:41:01.269Z,96802.69
2023-04-15T17:43:30.863Z,96811.69
2023-04-15T17:45:59.661Z,96814.69
2023-04-15T17:48:29.021Z,96816.88
2023-04-15T17:50:58.377Z,96821.72
2023-04-15T17:53:28.763Z,96834.25
2023-04-15T17:55:58.352Z,96835.75
2023-04-15T17:58:28.684Z,96839.31
2023-04-15T18:00:58.097Z,96847.34
2023-04-15T18:03:27.765Z,96848.22
2023-04-15T18:05:57.921Z,96855.84
2023-04-15T18:08:28.588Z,96854.34
2023-04-15T18:10:57.722Z,96866.13
2023-04-15T18:13:27.129Z,96870.63
2023-04-15T18:15:57.783Z,96872.34
2023-04-15T18:23:11.481Z,96882.81
2023-04-15T18:25:44.019Z,96882.19
2023-04-15T18:28:15.286Z,96885.00
2023-04-15T18:30:45.892Z,96883.47
2023-04-15T18:33:15.761Z,96900.06
2023-04-15T18:35:44.440Z,96900.59
2023-04-15T18:38:13.654Z,96904.38
2023-04-15T18:40:44.959Z,96914.38
2023-04-15T18:43:13.937Z,96908.72
2023-04-15T18:45:43.161Z,96911.84
2023-04-15T18:48:11.988Z,96919.19
2023-04-15T18:50:41.439Z,96925.66
2023-04-15T18:53:10.604Z,96922.28
2023-04-15T18:55:41.224Z,96924.16
2023-04-15T18:58:11.987Z,96923.00
2023-04-15T19:00:41.939Z,96923.59
2023-04-15T19:03:11.872Z,96929.44
2023-04-15T19:05:43.286Z,96924.72
2023-04-15T19:08:12.933Z,96936.00
2023-04-15T19:10:42.337Z,96943.06
2023-04-15T19:13:18.792Z,96940.53
2023-04-15T19:15:50.749Z,96955.00
2023-04-15T19:18:20.495Z,96951.81
2023-04-15T19:20:52.777Z,96948.41
2023-04-15T19:23:22.525Z,96954.44
2023-04-15T19:25:52.259Z,96956.88
2023-04-15T19:28:22.184Z,96958.53
2023-04-15T19:30:55.761Z,96966.63
2023-04-15T19:33:27.570Z,96962.19
2023-04-15T19:35:56.710Z,96964.00
2023-04-15T19:38:25.306Z,96964.00
2023-04-15T19:40:56.112Z,96971.06
2023-04-15T19:43:26.570Z,96972.06
2023-04-15T19:45:59.565Z,96968.19
2023-04-15T19:48:28.819Z,96976.53
2023-04-15T19:51:00.573Z,96981.03
2023-04-15T19:53:30.250Z,96977.03
2023-04-15T19:55:59.595Z,96969.34
2023-04-15T19:58:30.151Z,96973.84
2023-04-15T20:00:59.495Z,96973.59
2023-04-15T20:03:29.400Z,96984.66
2023-04-15T20:06:00.744Z,96976.31
2023-04-15T20:08:32.773Z,96978.38
2023-04-15T20:11:02.121Z,96985.72
2023-04-15T20:13:33.696Z,96974.69
2023-04-15T20:16:03.332Z,96984.38
2023-04-15T20:18:35.368Z,96988.16
2023-04-15T20:21:06.831Z,96992.13
2023-04-15T20:23:43.122Z,96985.34
2023-04-15T20:26:21.505Z,96992.03
2023-04-15T20:28:52.164Z,96987.25
2023-04-15T20:31:23.603Z,96999.75
2023-04-15T20:33:53.187Z,96996.53
2023-04-15T20:36:22.883Z,96999.63
2023-04-15T20:38:55.338Z,97003.50
2023-04-15T20:41:25.415Z,97005.00
2023-04-15T20:43:57.965Z,97003.91
2023-04-15T20:46:27.817Z,97010.31
2023-04-15T20:48:56.872Z,97009.94
2023-04-15T20:51:25.344Z,97009.38
2023-04-15T20:53:54.198Z,97019.25
2023-04-15T20:56:23.804Z,97013.53
2023-04-15T20:58:52.567Z,97015.66
2023-04-15T21:01:23.755Z,97019.50
2023-04-15T21:03:52.478Z,97017.34
2023-04-15T21:06:21.363Z,97025.50
2023-04-15T21:08:50.046Z,97022.25
2023-04-15T21:11:33.215Z,97024.09
2023-04-15T21:14:08.765Z,97026.78
2023-04-15T21:16:38.346Z,97036.59
2023-04-15T21:19:06.843Z,97036.94
2023-04-15T21:21:35.671Z,97033.47
2023-04-15T21:24:04.178Z,97041.41
2023-04-15T21:26:32.492Z,97051.03
2023-04-15T21:29:40.473Z,97053.03
2023-04-15T21:32:28.967Z,97051.50
2023-04-15T21:35:29.501Z,97048.34
2023-04-15T21:38:02.683Z,97066.78
2023-04-15T21:40:31.108Z,97062.78
2023-04-15T21:42:59.428Z,97076.97
2023-04-15T21:45:27.609Z,97073.69
2023-04-15T21:48:07.744Z,97084.84
2023-04-15T21:50:37.561Z,97084.06
2023-04-15T21:53:05.946Z,97089.41
2023-04-15T21:55:34.288Z,97094.66
2023-04-15T21:58:02.477Z,97086.44
2023-04-15T22:00:30.887Z,97097.19
2023-04-15T22:03:00.630Z,97096.25
2023-04-15T22:05:29.035Z,97101.47
2023-04-15T22:07:58.420Z,97100.00
2023-04-15T22:10:26.761Z,97094.50
2023-04-15T22:12:57.079Z,97102.22
2023-04-15T22:15:25.235Z,97103.19
2023-04-15T22:17:53.526Z,97098.34
2023-04-15T22:20:23.242Z,97113.03
2023-04-15T22:22:54.373Z,97101.75
2023-04-15T22:25:22.999Z,97102.50
2023-04-15T22:27:51.240Z,97108.44
2023-04-15T22:30:19.471Z,97107.00
2023-04-15T22:32:47.918Z,97109.63
2023-04-15T22:35:16.191Z,97120.63
2023-04-15T22:37:45.793Z,97127.69
2023-04-15T22:40:14.373Z,97127.59
2023-04-15T22:42:42.590Z,97124.28
2023-04-15T22:45:11.595Z,97131.50
2023-04-15T22:47:39.889Z,97120.91
2023-04-15T22:50:09.378Z,97120.31
2023-04-15T22:52:38.033Z,97116.94
2023-04-15T22:55:08.941Z,97128.06
2023-04-15T22:57:37.330Z,97130.91
2023-04-15T23:00:06.482Z,97145.50
2023-04-15T23:02:34.965Z,97139.88
2023-04-15T23:05:06.289Z,97140.78
2023-04-15T23:07:41.381Z,97151.00
2023-04-15T23:10:11.760Z,97147.72
2023-04-15T23:12:40.058Z,97163.44
2023-04-15T23:15:09.592Z,97166.13
2023-04-15T23:17:37.799Z,97163.75
2023-04-15T23:20:06.762Z,97162.00
2023-04-15T23:22:37.708Z,97149.81
2023-04-15T23:25:06.528Z,97163.69
2023-04-15T23:27:36.238Z,97158.56
2023-04-15T23:30:05.077Z,97157.84
2023-04-15T23:32:33.351Z,97164.72
2023-04-15T23:35:01.683Z,97169.84
2023-04-15T23:37:31.627Z,97180.44
2023-04-15T23:39:59.926Z,97181.25
2023-04-15T23:42:28.332Z,97181.34
2023-04-15T23:44:57.916Z,97174.66
2023-04-15T23:47:26.139Z,97171.97
2023-04-15T23:49:54.463Z,97171.66
2023-04-15T23:52:23.462Z,97166.63
2023-04-15T23:54:51.648Z,97176.00
2023-04-15T23:57:20.101Z,97174.28
2023-04-15T23:59:48.247Z,97168.44
